Time;durP1;ratioP1;P1;durP2;ratioP2;P2;SDS_P1;SDS_P2;PMS_P1;PMS_P2;Temp;Humidity;BMP_temperature;BMP_pressure;BME280_temperature;BME280_humidity;BME280_pressure;Samples;Min_cycle;Max_cycle;Signal;HPM_P1;HPM_P2
2022/10/14 00:01:23;;;;;;;13.93;12.55;;;17.00;61.50;;;;;;20703;6732;281262;-89
2022/10/14 00:03:59;;;;;;;13.87;12.13;;;17.40;60.50;;;;;;20688;6732;307449;-89
2022/10/14 00:06:35;;;;;;;11.87;10.77;;;17.40;60.40;;;;;;20811;6732;117348;-89
2022/10/14 00:09:10;;;;;;;13.40;10.83;;;17.20;60.80;;;;;;20913;6732;117572;-89
2022/10/14 00:11:48;;;;;;;13.25;11.90;;;16.80;61.60;;;;;;20687;6732;276491;-89
2022/10/14 00:14:23;;;;;;;12.60;10.87;;;16.90;61.80;;;;;;20908;6732;119484;-89
2022/10/14 00:16:58;;;;;;;16.33;11.45;;;16.80;62.00;;;;;;20562;6732;277502;-89
2022/10/14 00:19:34;;;;;;;15.60;11.40;;;16.80;62.20;;;;;;20762;6717;276890;-89
2022/10/14 00:22:15;;;;;;;15.60;11.38;;;17.10;61.30;;;;;;20743;6717;276653;-88
2022/10/14 00:24:46;;;;;;;15.40;11.43;;;17.20;60.70;;;;;;20678;6732;306345;-89
2022/10/14 00:27:22;;;;;;;20.90;10.00;;;17.40;60.90;;;;;;20511;6743;284086;-88
2022/10/14 00:29:58;;;;;;;11.07;8.23;;;17.20;60.60;;;;;;20887;6740;117085;-89
2022/10/14 00:32:34;;;;;;;10.20;9.30;;;17.20;60.60;;;;;;20831;6752;118584;-89
2022/10/14 00:35:09;;;;;;;11.57;10.38;;;16.80;61.50;;;;;;20624;6756;339945;-89
2022/10/14 00:37:45;;;;;;;11.17;10.37;;;16.70;61.80;;;;;;20536;6742;307127;-89
2022/10/14 00:40:20;;;;;;;11.48;10.38;;;17.00;61.70;;;;;;20746;6712;338145;-89
2022/10/14 00:42:56;;;;;;;9.40;8.50;;;17.20;60.80;;;;;;20953;6712;117468;-89
2022/10/14 00:45:33;;;;;;;16.05;9.70;;;17.00;61.50;;;;;;20712;6727;275962;-89
2022/10/14 00:48:09;;;;;;;9.60;8.90;;;17.00;61.50;;;;;;20926;6727;122775;-89
2022/10/14 00:50:44;;;;;;;9.63;8.50;;;16.80;61.70;;;;;;20913;6727;123034;-89
2022/10/14 00:53:20;;;;;;;10.23;9.33;;;16.50;62.50;;;;;;20924;6727;116851;-89
2022/10/14 00:55:56;;;;;;;9.80;8.83;;;16.30;63.10;;;;;;20854;6742;116946;-88
2022/10/14 00:58:31;;;;;;;11.35;10.45;;;16.10;63.70;;;;;;20713;6728;280710;-88
2022/10/14 01:01:07;;;;;;;11.30;10.30;;;16.30;63.50;;;;;;20693;6736;276654;-88
2022/10/14 01:03:42;;;;;;;11.30;10.27;;;16.60;62.30;;;;;;20662;6734;306465;-89
2022/10/14 01:06:38;;;;;;;10.77;9.87;;;16.90;61.60;;;;;;20589;6747;298283;-89
2022/10/14 01:09:17;;;;;;;9.90;8.90;;;17.10;60.90;;;;;;20855;6746;117943;-88
2022/10/14 01:12:22;;;;;;;11.43;10.43;;;16.80;61.20;;;;;;20611;6768;278677;-88
2022/10/14 01:15:18;;;;;;;12.03;10.93;;;16.80;61.00;;;;;;20645;6746;276746;-88
2022/10/14 01:18:03;;;;;;;12.60;11.37;;;17.10;60.30;;;;;;20632;6747;305610;-88
2022/10/14 01:20:55;;;;;;;10.53;9.63;;;17.20;59.80;;;;;;20928;6720;119429;-87
2022/10/14 01:23:38;;;;;;;10.13;9.23;;;17.00;60.30;;;;;;20896;6736;117227;-88
2022/10/14 01:26:43;;;;;;;13.40;9.37;;;16.60;61.40;;;;;;20830;6732;117600;-87
2022/10/14 01:29:42;;;;;;;10.90;9.07;;;16.00;63.20;;;;;;20900;6737;118794;-87
2022/10/14 01:32:24;;;;;;;10.03;9.13;;;15.80;63.70;;;;;;20916;6728;117203;-88
2022/10/14 01:35:23;;;;;;;10.40;9.40;;;15.80;63.70;;;;;;20886;6728;117600;-88
2022/10/14 01:38:06;;;;;;;11.60;10.50;;;15.70;64.20;;;;;;20733;6724;276136;-88
2022/10/14 01:40:45;;;;;;;11.47;10.17;;;16.10;63.70;;;;;;20686;6724;279948;-88
2022/10/14 01:43:21;;;;;;;10.77;9.97;;;16.50;62.90;;;;;;20695;6732;306221;-88
2022/10/14 01:45:57;;;;;;;11.60;10.40;;;16.80;61.50;;;;;;20634;6741;279708;-88
2022/10/14 01:48:33;;;;;;;10.07;9.27;;;17.10;61.00;;;;;;20939;6729;117640;-88
2022/10/14 01:51:08;;;;;;;12.07;8.73;;;16.90;61.20;;;;;;20878;6736;118214;-88
2022/10/14 01:53:45;;;;;;;9.83;8.93;;;16.60;61.90;;;;;;20907;6731;117128;-88
2022/10/14 01:56:20;;;;;;;11.00;10.18;;;16.30;62.60;;;;;;20686;6712;306897;-88
2022/10/14 01:58:56;;;;;;;11.60;9.20;;;16.50;62.50;;;;;;20918;6723;121276;-88
2022/10/14 02:01:33;;;;;;;9.53;8.50;;;16.40;62.50;;;;;;20842;6723;117147;-87
2022/10/14 02:04:17;;;;;;;9.27;8.47;;;16.30;63.10;;;;;;20878;6732;118408;-88
2022/10/14 02:06:59;;;;;;;10.53;9.47;;;16.10;63.60;;;;;;20464;6766;308499;-88
2022/10/14 02:09:37;;;;;;;9.57;8.87;;;16.30;62.60;;;;;;20639;6734;306664;-90
2022/10/14 02:12:19;;;;;;;10.48;9.52;;;16.70;61.60;;;;;;20680;6749;306997;-88
2022/10/14 02:16:02;;;;;;;11.57;9.63;;;17.10;60.40;;;;;;21080;6522;308746;-96
2022/10/14 02:18:41;;;;;;;9.57;7.17;;;17.30;60.10;;;;;;20700;6861;117710;-94
2022/10/14 02:21:09;;;;;;;9.07;7.37;;;16.60;61.20;;;;;;20688;6861;122577;-95
2022/10/14 02:23:36;;;;;;;7.30;6.63;;;16.60;61.20;;;;;;20672;6863;118256;-95
2022/10/14 02:26:01;;;;;;;11.10;7.27;;;16.40;61.90;;;;;;20684;6870;117990;-96
2022/10/14 02:28:27;;;;;;;8.03;7.43;;;16.20;62.50;;;;;;20460;6870;337636;-95
2022/10/14 02:30:52;;;;;;;9.47;8.03;;;16.40;62.20;;;;;;20448;6870;308221;-95
2022/10/14 02:33:21;;;;;;;7.87;7.07;;;16.70;61.20;;;;;;20702;6862;120141;-96
2022/10/14 02:35:47;;;;;;;7.77;6.30;;;16.70;61.20;;;;;;20700;6863;117307;-95
2022/10/14 02:38:13;;;;;;;10.40;6.50;;;16.50;61.70;;;;;;20704;6863;121095;-95
2022/10/14 02:40:39;;;;;;;7.30;6.60;;;16.10;62.90;;;;;;20695;6863;120171;-94
2022/10/14 02:43:06;;;;;;;7.68;7.10;;;16.10;62.60;;;;;;20479;6863;327270;-96
2022/10/14 02:45:30;;;;;;;9.90;8.17;;;16.30;62.00;;;;;;20485;6863;340807;-95
2022/10/14 02:47:56;;;;;;;8.82;8.10;;;16.70;61.80;;;;;;20498;6863;279359;-95
2022/10/14 02:50:21;;;;;;;7.60;7.00;;;16.90;60.00;;;;;;20702;6863;117723;-95
2022/10/14 02:52:47;;;;;;;9.20;7.70;;;16.80;60.30;;;;;;20692;6861;117439;-95
2022/10/14 02:55:12;;;;;;;8.30;7.57;;;16.60;61.00;;;;;;20499;6861;340270;-95
2022/10/14 02:57:38;;;;;;;8.27;7.30;;;16.70;60.80;;;;;;20708;6861;116798;-95
2022/10/14 03:00:04;;;;;;;8.10;6.60;;;16.40;61.50;;;;;;20718;6861;116271;-95
2022/10/14 03:02:31;;;;;;;9.40;6.33;;;16.20;62.10;;;;;;20717;6861;121912;-95
2022/10/14 03:04:57;;;;;;;7.17;6.57;;;16.20;62.10;;;;;;20691;6861;117678;-95
2022/10/14 03:07:22;;;;;;;7.63;6.33;;;16.00;63.20;;;;;;20700;6861;122595;-95
2022/10/14 03:09:48;;;;;;;6.70;6.17;;;16.00;63.20;;;;;;20714;6857;117029;-94
2022/10/14 03:12:14;;;;;;;9.47;7.40;;;15.90;63.40;;;;;;20712;6862;117364;-93
2022/10/14 03:14:39;;;;;;;8.07;7.35;;;15.80;63.60;;;;;;20479;6862;339044;-93
2022/10/14 03:17:05;;;;;;;7.70;7.10;;;16.10;62.70;;;;;;20711;6853;117669;-94
2022/10/14 03:19:32;;;;;;;7.53;6.77;;;16.20;62.50;;;;;;20779;6833;119323;-93
2022/10/14 03:21:57;;;;;;;8.07;7.47;;;16.00;62.60;;;;;;20572;6833;306254;-94
2022/10/14 03:24:23;;;;;;;8.07;7.47;;;16.30;62.10;;;;;;20777;6848;120420;-94
2022/10/14 03:26:48;;;;;;;9.13;8.10;;;16.30;61.90;;;;;;20578;6834;306899;-96
2022/10/14 03:29:14;;;;;;;8.85;8.05;;;16.40;61.30;;;;;;20579;6835;308608;-93
2022/10/14 03:31:39;;;;;;;8.70;6.87;;;16.80;60.70;;;;;;20764;6838;118554;-94
2022/10/14 03:34:05;;;;;;;8.27;7.57;;;16.70;60.70;;;;;;20583;6838;293500;-94
2022/10/14 03:36:31;;;;;;;8.63;7.80;;;16.70;60.70;;;;;;20499;6838;316867;-93
2022/10/14 03:38:57;;;;;;;8.82;7.75;;;17.00;60.50;;;;;;20460;6869;308855;-93
2022/10/14 03:41:23;;;;;;;8.00;7.30;;;17.20;59.80;;;;;;20479;6866;303321;-93
2022/10/14 03:43:48;;;;;;;8.13;7.40;;;17.30;59.20;;;;;;20703;6866;121025;-94
2022/10/14 03:46:14;;;;;;;8.20;7.60;;;17.10;59.40;;;;;;20476;6866;309718;-92
2022/10/14 03:48:39;;;;;;;8.70;7.90;;;17.10;59.00;;;;;;20659;6865;117794;-92
2022/10/14 03:51:05;;;;;;;8.52;7.80;;;16.90;59.40;;;;;;20461;6870;339221;-92
2022/10/14 03:53:31;;;;;;;8.17;7.10;;;16.90;59.30;;;;;;20691;6860;122255;-92
2022/10/14 03:55:56;;;;;;;7.90;7.10;;;16.80;59.60;;;;;;20700;6860;120031;-92
2022/10/14 03:58:22;;;;;;;9.37;7.27;;;16.50;60.30;;;;;;20725;6855;117683;-93
2022/10/14 04:00:47;;;;;;;7.90;7.10;;;16.20;60.90;;;;;;20710;6855;119923;-93
2022/10/14 04:03:13;;;;;;;6.93;6.53;;;16.00;61.50;;;;;;20729;6855;117486;-93
2022/10/14 04:05:38;;;;;;;8.52;7.90;;;15.90;62.10;;;;;;20520;6855;309159;-93
2022/10/14 04:08:05;;;;;;;9.63;8.20;;;16.50;61.00;;;;;;20513;6855;280942;-94
2022/10/14 04:10:31;;;;;;;7.90;7.10;;;16.40;60.90;;;;;;20676;6870;118239;-93
2022/10/14 04:12:57;;;;;;;9.20;8.50;;;16.40;60.90;;;;;;20426;6877;309716;-92
2022/10/14 04:15:23;;;;;;;9.37;8.37;;;16.50;60.60;;;;;;20503;6857;281779;-93
2022/10/14 04:17:48;;;;;;;7.47;6.87;;;16.80;60.20;;;;;;20726;6856;119477;-93
2022/10/14 04:20:13;;;;;;;7.95;7.22;;;16.60;60.20;;;;;;20736;6856;118946;-92
2022/10/14 04:22:39;;;;;;;8.80;6.67;;;16.40;61.00;;;;;;20684;6854;118430;-93
2022/10/14 04:25:05;;;;;;;7.67;6.97;;;16.10;61.60;;;;;;20702;6866;120907;-94
2022/10/14 04:27:30;;;;;;;8.17;7.57;;;16.00;62.30;;;;;;20483;6864;279451;-92
2022/10/14 04:29:56;;;;;;;8.97;8.17;;;16.20;62.50;;;;;;20483;6864;308841;-92
2022/10/14 04:32:22;;;;;;;12.43;7.43;;;16.50;61.20;;;;;;20703;6864;119359;-93
2022/10/14 04:34:48;;;;;;;7.50;6.90;;;16.50;61.20;;;;;;20681;6864;119819;-93
2022/10/14 04:37:13;;;;;;;9.07;7.87;;;16.30;61.80;;;;;;20496;6863;282430;-93
2022/10/14 04:39:39;;;;;;;8.55;7.60;;;16.40;62.10;;;;;;20501;6864;281743;-92
2022/10/14 04:42:05;;;;;;;8.33;7.43;;;16.70;61.30;;;;;;20700;6864;117357;-92
2022/10/14 04:44:31;;;;;;;7.93;7.32;;;16.70;60.80;;;;;;20513;6864;337397;-93
2022/10/14 04:46:56;;;;;;;7.87;7.25;;;16.70;61.20;;;;;;20467;6864;319572;-93
2022/10/14 04:49:23;;;;;;;8.82;7.65;;;16.90;60.30;;;;;;20500;6854;318876;-93
2022/10/14 04:51:49;;;;;;;9.00;6.93;;;17.10;59.90;;;;;;20690;6854;120667;-94
2022/10/14 04:54:14;;;;;;;11.12;7.87;;;16.90;60.00;;;;;;20558;6854;310136;-95
2022/10/14 04:56:41;;;;;;;9.30;7.23;;;16.90;59.90;;;;;;20725;6854;118421;-93
2022/10/14 04:59:06;;;;;;;8.93;6.63;;;16.80;60.30;;;;;;20737;6854;116469;-94
2022/10/14 05:01:32;;;;;;;11.65;7.82;;;16.50;61.00;;;;;;20539;6854;281311;-94
2022/10/14 05:03:58;;;;;;;14.90;7.80;;;16.50;60.90;;;;;;20534;6854;279496;-95
2022/10/14 05:06:24;;;;;;;9.80;8.07;;;17.00;60.10;;;;;;20526;6854;308702;-95
2022/10/14 05:08:49;;;;;;;9.57;8.17;;;17.00;60.00;;;;;;20509;6854;323091;-95
2022/10/14 05:11:15;;;;;;;10.52;7.43;;;17.10;59.40;;;;;;20742;6854;117864;-96
2022/10/14 05:13:41;;;;;;;9.57;7.20;;;16.90;59.80;;;;;;20746;6854;118694;-95
2022/10/14 05:16:09;;;;;;;8.30;7.50;;;16.60;60.60;;;;;;20528;6854;308232;-95
2022/10/14 05:18:32;;;;;;;8.47;7.77;;;16.60;61.00;;;;;;20507;6854;279891;-95
2022/10/14 05:20:58;;;;;;;8.23;7.43;;;16.80;60.60;;;;;;20516;6854;318938;-95
2022/10/14 05:23:23;;;;;;;8.50;7.67;;;17.00;59.50;;;;;;20528;6854;309761;-95
2022/10/14 05:25:50;;;;;;;8.05;7.43;;;17.20;59.00;;;;;;20528;6854;308696;-95
2022/10/14 05:28:14;;;;;;;10.57;8.23;;;17.30;58.60;;;;;;20517;6854;338698;-95
2022/10/14 05:30:40;;;;;;;9.03;8.20;;;17.40;59.00;;;;;;20500;6854;311549;-95
2022/10/14 05:33:06;;;;;;;8.00;7.30;;;17.40;57.80;;;;;;20733;6854;117405;-95
2022/10/14 05:35:31;;;;;;;9.33;8.53;;;17.10;58.50;;;;;;20528;6854;279451;-95
2022/10/14 05:37:57;;;;;;;9.43;8.60;;;17.10;58.90;;;;;;20538;6854;311385;-95
2022/10/14 05:40:23;;;;;;;10.03;8.50;;;17.10;58.50;;;;;;20727;6854;119622;-95
2022/10/14 05:42:49;;;;;;;9.95;8.95;;;16.90;58.90;;;;;;20479;6854;309518;-95
2022/10/14 05:45:14;;;;;;;9.10;8.50;;;16.90;59.10;;;;;;20523;6854;279904;-95
2022/10/14 05:47:40;;;;;;;9.47;8.67;;;17.00;58.90;;;;;;20725;6852;120024;-95
2022/10/14 05:50:05;;;;;;;11.52;8.48;;;16.80;59.30;;;;;;20515;6853;309070;-95
2022/10/14 05:52:31;;;;;;;9.40;8.60;;;16.80;59.70;;;;;;20517;6854;280804;-95
2022/10/14 05:54:57;;;;;;;12.50;8.07;;;17.00;59.50;;;;;;20701;6854;120166;-96
2022/10/14 05:57:22;;;;;;;9.13;8.20;;;16.80;59.70;;;;;;20508;6854;338224;-94
2022/10/14 05:59:48;;;;;;;8.57;7.45;;;16.80;59.70;;;;;;20750;6854;119514;-95
2022/10/14 06:02:27;;;;;;;;;;;;;;;;;;;;;
2022/10/14 06:04:42;;;;;;;9.50;8.60;;;16.40;60.70;;;;;;20483;6854;279897;-95
2022/10/14 06:07:09;;;;;;;8.98;8.18;;;16.50;60.90;;;;;;20524;6854;299332;-95
2022/10/14 06:09:33;;;;;;;8.60;7.80;;;16.80;60.00;;;;;;20524;6854;309998;-95
2022/10/14 06:11:59;;;;;;;6.45;5.95;;;17.10;60.40;;;;;;20535;6854;281166;-94
2022/10/14 06:14:25;;;;;;;7.93;6.77;;;17.50;60.40;;;;;;20513;6854;279885;-95
2022/10/14 06:16:51;;;;;;;7.27;6.77;;;17.50;60.30;;;;;;20701;6854;117391;-95
2022/10/14 06:19:16;;;;;;;6.40;5.90;;;17.40;60.30;;;;;;20711;6854;117504;-96
2022/10/14 06:21:43;;;;;;;8.13;6.83;;;17.10;60.70;;;;;;20730;6854;118570;-92
2022/10/14 06:24:08;;;;;;;7.95;7.18;;;16.70;61.90;;;;;;20727;6854;117798;-92
2022/10/14 06:26:34;;;;;;;8.20;7.10;;;16.70;61.20;;;;;;20721;6854;117530;-92
2022/10/14 06:28:59;;;;;;;9.60;7.23;;;16.50;61.40;;;;;;20698;6854;117690;-92
2022/10/14 06:31:25;;;;;;;8.17;6.90;;;16.40;61.50;;;;;;20737;6854;117435;-92
2022/10/14 06:33:51;;;;;;;8.30;7.60;;;16.30;61.70;;;;;;20522;6854;311027;-91
2022/10/14 06:36:16;;;;;;;8.30;7.20;;;16.50;60.80;;;;;;20726;6854;117804;-92
2022/10/14 06:38:42;;;;;;;8.63;7.93;;;16.50;60.60;;;;;;20505;6854;309066;-91
2022/10/14 06:41:09;;;;;;;9.25;8.38;;;17.00;59.60;;;;;;20506;6854;309009;-92
2022/10/14 06:43:34;;;;;;;7.40;6.90;;;17.00;59.50;;;;;;20721;6854;116506;-94
2022/10/14 06:45:59;;;;;;;7.77;7.10;;;16.90;59.60;;;;;;20727;6854;117834;-95
2022/10/14 06:48:25;;;;;;;13.52;8.27;;;16.70;60.20;;;;;;20510;6854;308603;-93
2022/10/14 06:50:50;;;;;;;12.67;10.07;;;16.80;61.00;;;;;;20506;6854;298980;-95
2022/10/14 06:53:16;;;;;;;14.75;13.05;;;17.10;60.80;;;;;;20520;6854;334451;-95
2022/10/14 06:55:41;;;;;;;17.87;15.98;;;17.30;59.80;;;;;;20536;6854;279756;-93
2022/10/14 06:58:07;;;;;;;19.98;13.95;;;17.50;59.10;;;;;;20516;6854;340781;-94
2022/10/14 07:00:33;;;;;;;14.07;10.47;;;17.80;58.40;;;;;;20529;6852;280607;-94
2022/10/14 07:02:59;;;;;;;17.23;15.00;;;17.80;58.40;;;;;;20509;6854;309414;-95
2022/10/14 07:05:25;;;;;;;15.53;14.00;;;17.90;58.30;;;;;;20521;6854;310477;-94
2022/10/14 07:07:50;;;;;;;9.60;7.53;;;17.90;58.50;;;;;;20714;6854;121556;-95
2022/10/14 07:10:16;;;;;;;7.87;7.17;;;17.70;58.90;;;;;;20713;6854;117698;-94
2022/10/14 07:12:42;;;;;;;10.10;7.90;;;17.10;60.10;;;;;;20692;6854;117439;-94
2022/10/14 07:15:08;;;;;;;7.13;6.53;;;17.10;60.00;;;;;;20717;6854;118063;-94
2022/10/14 07:17:33;;;;;;;8.07;7.37;;;16.90;60.60;;;;;;20500;6854;279566;-93
2022/10/14 07:19:59;;;;;;;9.20;8.43;;;17.00;59.60;;;;;;20500;6854;311257;-94
2022/10/14 07:22:25;;;;;;;7.65;7.07;;;17.60;58.00;;;;;;20508;6854;309097;-94
2022/10/14 07:24:51;;;;;;;7.23;6.63;;;17.60;58.00;;;;;;20704;6854;123373;-94
2022/10/14 07:27:19;;;;;;;8.00;7.30;;;17.50;58.10;;;;;;20507;6854;281702;-94
2022/10/14 07:29:42;;;;;;;9.02;7.10;;;17.50;58.30;;;;;;20511;6854;279122;-94
2022/10/14 07:32:11;;;;;;;7.60;7.00;;;17.70;57.70;;;;;;20516;6854;279084;-93
2022/10/14 07:34:36;;;;;;;7.60;6.77;;;17.90;57.30;;;;;;20723;6854;118981;-93
2022/10/14 07:37:02;;;;;;;7.55;6.90;;;17.80;58.10;;;;;;20501;6854;279667;-94
2022/10/14 07:39:28;;;;;;;8.13;7.53;;;17.70;58.00;;;;;;20513;6854;311250;-93
2022/10/14 07:41:54;;;;;;;7.10;6.50;;;17.90;57.60;;;;;;20711;6854;122939;-93
2022/10/14 07:44:19;;;;;;;7.62;6.97;;;17.90;57.90;;;;;;20721;6854;119922;-94
2022/10/14 07:46:45;;;;;;;8.55;7.85;;;17.60;58.40;;;;;;20502;6854;302478;-96
2022/10/14 07:49:10;;;;;;;8.87;7.97;;;17.70;58.00;;;;;;20518;6854;310261;-96
2022/10/14 07:51:39;;;;;;;8.50;7.10;;;17.90;57.70;;;;;;20722;6854;117527;-96
2022/10/14 07:54:05;;;;;;;7.53;6.93;;;17.80;57.90;;;;;;20723;6854;118665;-96
2022/10/14 07:56:33;;;;;;;7.60;6.85;;;17.60;58.50;;;;;;20713;6854;117425;-96
2022/10/14 07:58:56;;;;;;;7.00;6.40;;;17.40;59.20;;;;;;20688;6854;118719;-95
2022/10/14 08:01:23;;;;;;;7.80;7.00;;;17.30;59.80;;;;;;20718;6854;119791;-95
2022/10/14 08:03:47;;;;;;;7.80;7.20;;;17.20;60.20;;;;;;20724;6854;118354;-96
2022/10/14 08:06:12;;;;;;;8.23;7.53;;;17.10;60.50;;;;;;20507;6854;322748;-95
2022/10/14 08:08:38;;;;;;;8.67;7.90;;;17.40;60.00;;;;;;20501;6854;278546;-95
2022/10/14 08:11:07;;;;;;;9.27;7.27;;;17.80;59.10;;;;;;20577;6852;117602;-95
2022/10/14 08:13:32;;;;;;;8.23;7.50;;;17.90;59.10;;;;;;20819;6845;117115;-94
2022/10/14 08:15:58;;;;;;;8.13;7.33;;;17.70;59.30;;;;;;20810;6846;118074;-95
2022/10/14 08:18:24;;;;;;;10.23;7.70;;;17.60;59.70;;;;;;20528;6854;311272;-95
2022/10/14 08:20:49;;;;;;;8.83;8.07;;;17.80;59.30;;;;;;20519;6846;307775;-95
2022/10/14 08:23:15;;;;;;;8.80;8.00;;;18.10;58.90;;;;;;20566;6839;341611;-94
2022/10/14 08:25:40;;;;;;;8.43;7.63;;;18.40;58.30;;;;;;20780;6839;117310;-95
2022/10/14 08:28:06;;;;;;;8.10;7.30;;;18.40;58.40;;;;;;20773;6839;117144;-95
2022/10/14 08:30:32;;;;;;;7.43;6.93;;;18.20;58.80;;;;;;20776;6839;118556;-95
2022/10/14 08:32:58;;;;;;;9.07;8.27;;;18.00;59.30;;;;;;20550;6839;309329;-96
2022/10/14 08:35:24;;;;;;;7.93;7.43;;;18.20;58.80;;;;;;20774;6839;121031;-96
2022/10/14 08:37:57;;;;;;;8.83;8.13;;;18.40;59.20;;;;;;20551;6839;280807;-95
2022/10/14 08:40:22;;;;;;;8.45;7.65;;;18.40;58.90;;;;;;20546;6839;311960;-95
2022/10/14 08:43:00;;;;;;;8.07;7.37;;;18.70;57.60;;;;;;20741;6839;120546;-94
2022/10/14 08:45:33;;;;;;;8.85;8.15;;;19.00;57.70;;;;;;20557;6839;308411;-95
2022/10/14 08:47:58;;;;;;;9.63;7.23;;;18.90;57.60;;;;;;20755;6839;117262;-95
2022/10/14 08:50:37;;;;;;;7.63;6.90;;;19.00;58.00;;;;;;20746;6839;117797;-96
2022/10/14 08:53:05;;;;;;;7.57;6.83;;;18.80;59.20;;;;;;20763;6839;117842;-95
2022/10/14 08:55:34;;;;;;;6.17;5.77;;;18.80;59.20;;;;;;20747;6839;117625;-94
2022/10/14 08:58:03;;;;;;;7.68;6.90;;;18.70;59.50;;;;;;20542;6839;308706;-96
2022/10/14 09:00:32;;;;;;;6.50;5.93;;;19.00;57.40;;;;;;20743;6839;117514;-96
2022/10/14 09:02:56;;;;;;;6.77;6.10;;;19.10;57.30;;;;;;20730;6839;123341;-96
2022/10/14 09:05:21;;;;;;;7.18;6.57;;;19.10;57.30;;;;;;20536;6839;337281;-95
2022/10/14 09:07:48;;;;;;;10.60;6.00;;;19.40;56.10;;;;;;20761;6839;117830;-95
2022/10/14 09:10:13;;;;;;;7.68;7.18;;;19.30;56.00;;;;;;20539;6839;338161;-95
2022/10/14 09:12:39;;;;;;;6.60;5.97;;;19.60;55.30;;;;;;20737;6839;148355;-96
2022/10/14 09:15:14;;;;;;;6.93;6.33;;;19.60;55.40;;;;;;20777;6839;118682;-95
2022/10/14 09:17:47;;;;;;;7.60;7.00;;;19.30;56.90;;;;;;20771;6839;117062;-96
2022/10/14 09:20:20;;;;;;;7.07;6.53;;;19.30;56.70;;;;;;20726;6839;117371;-96
2022/10/14 09:22:55;;;;;;;7.77;7.03;;;19.30;57.00;;;;;;20750;6838;118448;-95
2022/10/14 09:25:21;;;;;;;7.00;6.17;;;19.10;57.40;;;;;;20755;6839;117328;-96
2022/10/14 09:27:47;;;;;;;7.57;6.90;;;19.10;57.30;;;;;;20768;6839;118251;-95
2022/10/14 09:30:13;;;;;;;6.90;6.40;;;19.20;58.10;;;;;;20770;6839;119471;-96
2022/10/14 09:32:39;;;;;;;7.30;6.60;;;19.20;58.10;;;;;;20743;6839;121195;-96
2022/10/14 09:35:14;;;;;;;6.40;5.80;;;19.40;58.60;;;;;;20768;6839;118230;-96
2022/10/14 09:37:41;;;;;;;8.90;6.62;;;19.80;57.70;;;;;;20540;6839;337810;-96
2022/10/14 09:40:26;;;;;;;6.77;6.10;;;19.80;57.70;;;;;;20787;6839;118490;-96
2022/10/14 09:43:09;;;;;;;6.53;6.03;;;20.10;57.10;;;;;;20837;6739;122486;-88
2022/10/14 09:46:01;;;;;;;7.07;6.53;;;20.10;56.80;;;;;;20575;6754;307349;-88
2022/10/14 09:48:49;;;;;;;7.60;7.00;;;20.30;55.80;;;;;;20620;6764;278563;-90
2022/10/14 09:51:28;;;;;;;7.07;6.57;;;20.80;55.10;;;;;;20837;6747;117066;-89
2022/10/14 09:54:03;;;;;;;8.40;5.50;;;20.80;55.10;;;;;;20785;6748;117420;-89
2022/10/14 09:56:40;;;;;;;6.67;6.07;;;20.70;54.20;;;;;;20454;6762;283262;-90
2022/10/14 09:59:22;;;;;;;7.20;6.28;;;20.70;54.20;;;;;;20550;6769;281717;-91
2022/10/14 10:01:59;;;;;;;6.40;5.87;;;21.00;53.80;;;;;;20750;6784;118410;-88
2022/10/14 10:04:33;;;;;;;9.40;5.67;;;21.00;54.20;;;;;;20809;6774;118507;-89
2022/10/14 10:07:09;;;;;;;7.53;6.87;;;20.90;54.90;;;;;;20464;6759;309375;-89
2022/10/14 10:09:44;;;;;;;6.75;6.25;;;21.10;54.20;;;;;;20533;6819;338021;-87
2022/10/14 10:12:24;;;;;;;6.97;6.37;;;21.40;53.30;;;;;;20814;6763;117236;-87
2022/10/14 10:15:02;;;;;;;5.63;5.23;;;21.30;53.50;;;;;;20726;6783;117490;-87
2022/10/14 10:17:35;;;;;;;4.53;4.23;;;21.30;54.00;;;;;;20420;6782;311096;-87
2022/10/14 10:20:15;;;;;;;6.17;5.57;;;21.40;52.80;;;;;;20881;6752;118374;-85
2022/10/14 10:22:51;;;;;;;7.10;6.50;;;21.50;52.80;;;;;;20613;6767;277957;-88
2022/10/14 10:25:27;;;;;;;6.20;5.60;;;21.50;52.80;;;;;;20817;6769;118239;-87
2022/10/14 10:28:03;;;;;;;6.00;5.50;;;21.20;53.60;;;;;;20711;6799;117505;-89
2022/10/14 10:30:39;;;;;;;5.40;4.90;;;21.20;53.60;;;;;;20668;6802;117482;-88
2022/10/14 10:33:14;;;;;;;5.87;4.97;;;21.00;54.00;;;;;;20713;6795;117404;-91
2022/10/14 10:36:14;;;;;;;5.10;4.70;;;20.80;54.40;;;;;;20841;6755;116912;-88
2022/10/14 10:39:18;;;;;;;6.47;4.70;;;20.60;54.60;;;;;;20654;6760;289872;-89
2022/10/14 10:42:13;;;;;;;4.50;4.20;;;20.90;53.50;;;;;;20914;6743;116928;-90
2022/10/14 10:44:57;;;;;;;6.37;4.50;;;20.90;53.50;;;;;;20813;6758;120821;-89
2022/10/14 10:47:58;;;;;;;4.90;4.47;;;20.60;53.80;;;;;;20575;6826;117308;-90
2022/10/14 10:50:52;;;;;;;7.23;5.17;;;20.50;54.20;;;;;;20546;6778;283414;-89
2022/10/14 10:53:28;;;;;;;6.53;4.47;;;21.20;52.90;;;;;;20545;6778;324320;-89
2022/10/14 10:56:14;;;;;;;6.27;4.17;;;21.10;52.80;;;;;;20776;6765;116152;-90
2022/10/14 10:58:49;;;;;;;5.23;4.70;;;21.10;53.00;;;;;;20797;6764;118223;-92
2022/10/14 11:01:35;;;;;;;4.87;4.23;;;20.80;53.30;;;;;;20855;6747;117210;-91
2022/10/14 11:04:50;;;;;;;7.50;5.07;;;20.60;53.80;;;;;;20580;6755;312408;-89
2022/10/14 11:13:41;;;;;;;4.87;4.50;;;21.20;53.10;;;;;;20607;6758;294580;-93
2022/10/14 11:16:39;;;;;;;4.67;4.30;;;21.30;53.10;;;;;;20819;6741;117439;-89
2022/10/14 11:19:25;;;;;;;4.50;4.00;;;21.00;53.60;;;;;;20892;6736;117171;-88
2022/10/14 11:22:20;;;;;;;9.50;3.90;;;20.60;54.60;;;;;;20862;6736;117027;-91
2022/10/14 11:25:09;;;;;;;4.00;3.70;;;20.30;55.30;;;;;;20656;6742;277126;-91
2022/10/14 11:27:58;;;;;;;4.70;4.03;;;20.40;55.00;;;;;;20434;6764;283508;-92
2022/10/14 11:30:47;;;;;;;4.03;3.72;;;20.80;55.30;;;;;;20040;6816;282051;-87
2022/10/14 11:33:32;;;;;;;4.50;3.30;;;21.10;54.40;;;;;;20853;6743;117685;-88
2022/10/14 11:36:24;;;;;;;3.13;2.87;;;21.00;54.70;;;;;;20585;6748;118025;-89
2022/10/14 11:39:05;;;;;;;4.20;2.90;;;20.80;55.30;;;;;;20565;6758;312320;-88
2022/10/14 11:41:44;;;;;;;2.77;2.57;;;21.00;54.50;;;;;;20538;6827;117156;-88
2022/10/14 11:44:36;;;;;;;4.30;2.80;;;20.90;54.30;;;;;;20554;6758;336264;-88
2022/10/14 11:47:14;;;;;;;2.37;2.27;;;21.20;54.20;;;;;;20624;6785;118320;-88
2022/10/14 11:50:10;;;;;;;2.77;2.57;;;21.10;54.10;;;;;;20565;6764;322657;-86
2022/10/14 11:52:50;;;;;;;3.10;2.80;;;21.30;52.50;;;;;;20523;6776;278307;-88
2022/10/14 11:55:27;;;;;;;2.67;2.47;;;21.50;52.00;;;;;;20792;6771;120188;-88
2022/10/14 11:58:14;;;;;;;;;;;;;;;;;;;;;
2022/10/14 12:00:40;;;;;;;2.57;2.47;;;21.10;52.80;;;;;;20621;6758;152574;-91
2022/10/14 12:03:23;;;;;;;3.00;2.70;;;20.90;53.50;;;;;;20860;6751;117290;-87
2022/10/14 12:06:15;;;;;;;2.90;2.70;;;20.80;53.80;;;;;;20737;6781;117294;-86
2022/10/14 12:08:59;;;;;;;2.60;2.27;;;20.70;53.90;;;;;;20779;6768;117259;-88
2022/10/14 12:11:51;;;;;;;5.03;2.40;;;20.60;54.00;;;;;;20777;6807;117124;-87
2022/10/14 12:14:34;;;;;;;3.23;2.03;;;20.60;54.00;;;;;;20859;6751;117539;-88
2022/10/14 12:17:16;;;;;;;2.40;2.20;;;20.60;54.40;;;;;;20512;6751;279929;-88
2022/10/14 12:19:52;;;;;;;2.70;2.50;;;21.00;53.20;;;;;;20850;6748;121817;-88
2022/10/14 12:22:29;;;;;;;3.25;2.60;;;21.10;53.20;;;;;;20579;6768;307771;-89
2022/10/14 12:25:04;;;;;;;2.27;2.03;;;21.40;52.90;;;;;;20827;6751;119536;-89
2022/10/14 12:27:40;;;;;;;3.23;2.20;;;21.40;52.90;;;;;;20676;6751;119049;-90
2022/10/14 12:30:29;;;;;;;2.43;1.90;;;21.30;53.30;;;;;;20866;6751;117984;-88
2022/10/14 12:33:06;;;;;;;1.80;1.70;;;21.10;53.50;;;;;;20528;6751;340111;-88
2022/10/14 12:35:51;;;;;;;1.80;1.70;;;21.20;52.50;;;;;;20865;6744;117215;-90
2022/10/14 12:38:27;;;;;;;3.27;1.53;;;21.20;52.50;;;;;;20664;6744;307181;-91
2022/10/14 12:41:35;;;;;;;1.70;1.60;;;21.30;51.20;;;;;;20765;6769;119184;-89
2022/10/14 12:44:14;;;;;;;1.50;1.40;;;21.30;51.60;;;;;;20882;6732;117559;-88
2022/10/14 12:46:50;;;;;;;2.30;1.40;;;20.90;51.90;;;;;;20650;6776;147898;-91
2022/10/14 12:49:29;;;;;;;1.83;1.73;;;20.70;52.40;;;;;;20592;6761;283555;-88
2022/10/14 12:52:04;;;;;;;1.37;1.30;;;20.90;51.90;;;;;;20820;6762;117276;-91
2022/10/14 12:54:41;;;;;;;1.93;1.60;;;21.00;52.40;;;;;;20546;6776;309875;-90
2022/10/14 12:57:26;;;;;;;1.87;1.37;;;21.00;51.90;;;;;;20545;6763;119120;-88
2022/10/14 13:00:08;;;;;;;0.90;0.90;;;21.00;52.20;;;;;;20794;6761;116499;-88
2022/10/14 13:02:45;;;;;;;1.57;1.00;;;20.80;52.60;;;;;;20756;6767;118850;-91
2022/10/14 13:05:20;;;;;;;1.47;1.40;;;20.60;52.80;;;;;;20841;6747;117759;-91
2022/10/14 13:08:19;;;;;;;1.30;1.30;;;20.40;53.00;;;;;;20769;6748;117513;-91
2022/10/14 13:10:58;;;;;;;1.70;1.30;;;20.30;53.20;;;;;;20801;6750;147075;-89